Time;durP1;ratioP1;P1;durP2;ratioP2;P2;SDS_P1;SDS_P2;PMS_P1;PMS_P2;Temp;Humidity;BMP_temperature;BMP_pressure;BME280_temperature;BME280_humidity;BME280_pressure;Samples;Min_cycle;Max_cycle;Signal;HPM_P1;HPM_P2
2022/03/23 00:01:12;;;;;;;110.80;65.63;;;;;;;;;;5001656;28;20182;-68
2022/03/23 00:03:37;;;;;;;107.78;64.03;;;;;;;;;;5016392;28;20076;-68
2022/03/23 00:06:03;;;;;;;109.00;65.10;;;;;;;;;;5017420;28;20456;-68
2022/03/23 00:08:29;;;;;;;103.65;62.08;;;;;;;;;;5017701;28;20523;-68
2022/03/23 00:10:56;;;;;;;103.38;63.45;;;;;;;;;;5001918;28;20060;-68
2022/03/23 00:13:22;;;;;;;104.88;61.83;;;;;;;;;;5016470;28;20025;-68
2022/03/23 00:15:47;;;;;;;107.38;62.75;;;;;;;;;;5017566;28;20037;-68
2022/03/23 00:18:13;;;;;;;106.95;64.32;;;;;;;;;;5015872;28;20044;-68
2022/03/23 00:20:39;;;;;;;111.32;63.03;;;;;;;;;;5016711;28;20028;-68
2022/03/23 00:23:08;;;;;;;104.85;62.63;;;;;;;;;;5017293;28;20057;-68
2022/03/23 00:25:36;;;;;;;108.25;62.92;;;;;;;;;;5017904;28;20500;-68
2022/03/23 00:28:01;;;;;;;105.10;61.75;;;;;;;;;;5004129;28;20084;-68
2022/03/23 00:30:27;;;;;;;113.55;64.25;;;;;;;;;;5001076;28;20211;-68
2022/03/23 00:32:52;;;;;;;109.88;61.83;;;;;;;;;;5001532;28;20071;-68
2022/03/23 00:35:18;;;;;;;111.40;63.92;;;;;;;;;;5000883;28;20052;-68
2022/03/23 00:37:43;;;;;;;107.88;63.88;;;;;;;;;;5000851;28;20026;-68
2022/03/23 00:40:09;;;;;;;108.45;63.83;;;;;;;;;;5016728;28;20028;-69
2022/03/23 00:42:36;;;;;;;108.43;64.28;;;;;;;;;;5001450;28;20038;-69
2022/03/23 00:45:03;;;;;;;116.47;66.25;;;;;;;;;;5016286;28;21796;-69
2022/03/23 00:47:29;;;;;;;113.50;65.68;;;;;;;;;;5009789;28;20396;-69
2022/03/23 00:49:54;;;;;;;102.55;62.67;;;;;;;;;;4993292;28;20065;-68
2022/03/23 00:52:24;;;;;;;113.80;66.60;;;;;;;;;;5016950;28;20099;-68
2022/03/23 00:54:53;;;;;;;113.18;67.72;;;;;;;;;;5016368;28;20025;-68
2022/03/23 00:57:18;;;;;;;113.18;66.28;;;;;;;;;;5016912;28;20028;-68
2022/03/23 00:59:43;;;;;;;107.55;67.82;;;;;;;;;;5015826;28;20428;-68
2022/03/23 01:02:11;;;;;;;113.80;67.90;;;;;;;;;;5016979;28;20044;-68
2022/03/23 01:04:37;;;;;;;113.80;68.88;;;;;;;;;;5016348;28;20281;-68
2022/03/23 01:07:05;;;;;;;121.68;70.28;;;;;;;;;;5016327;28;20059;-68
2022/03/23 01:09:31;;;;;;;120.20;70.28;;;;;;;;;;5000822;28;20568;-68
2022/03/23 01:11:57;;;;;;;122.32;71.80;;;;;;;;;;5015849;28;20033;-69
2022/03/23 01:14:24;;;;;;;115.00;69.65;;;;;;;;;;5016484;28;20029;-68
2022/03/23 01:16:50;;;;;;;119.82;71.60;;;;;;;;;;5016153;28;20024;-68
2022/03/23 01:19:20;;;;;;;122.07;69.97;;;;;;;;;;4998541;28;20466;-69
2022/03/23 01:21:45;;;;;;;115.95;68.20;;;;;;;;;;5015145;28;20033;-68
2022/03/23 01:24:10;;;;;;;116.50;66.75;;;;;;;;;;5016460;28;20557;-68
2022/03/23 01:26:38;;;;;;;125.05;70.07;;;;;;;;;;5015207;28;20035;-68
2022/03/23 01:29:04;;;;;;;115.68;67.13;;;;;;;;;;5015838;28;20025;-69
2022/03/23 01:31:29;;;;;;;120.32;69.80;;;;;;;;;;5006069;28;20033;-68
2022/03/23 01:33:59;;;;;;;116.63;68.65;;;;;;;;;;5015904;28;20033;-68
2022/03/23 01:36:27;;;;;;;115.70;69.03;;;;;;;;;;5016072;28;20449;-71
2022/03/23 01:38:53;;;;;;;112.72;66.22;;;;;;;;;;4999645;28;20029;-71
2022/03/23 01:41:19;;;;;;;111.18;65.60;;;;;;;;;;4997398;28;20044;-70
2022/03/23 01:43:47;;;;;;;112.07;68.75;;;;;;;;;;5001324;28;20401;-71
2022/03/23 01:46:15;;;;;;;119.28;69.35;;;;;;;;;;5020928;28;20028;-73
2022/03/23 01:48:41;;;;;;;121.15;69.80;;;;;;;;;;5019517;28;20040;-71
2022/03/23 01:51:06;;;;;;;120.10;69.68;;;;;;;;;;5012938;28;20033;-73
2022/03/23 01:53:34;;;;;;;128.90;70.32;;;;;;;;;;5021104;28;20091;-72
2022/03/23 01:56:01;;;;;;;117.72;68.18;;;;;;;;;;5020169;28;20558;-77
2022/03/23 01:58:27;;;;;;;120.10;69.55;;;;;;;;;;5018745;28;20369;-78
2022/03/23 02:00:55;;;;;;;115.13;67.95;;;;;;;;;;5018431;28;20095;-78
2022/03/23 02:03:20;;;;;;;122.75;71.30;;;;;;;;;;5001519;28;20049;-79
2022/03/23 02:05:45;;;;;;;130.98;74.82;;;;;;;;;;5002201;28;20047;-79
2022/03/23 02:08:13;;;;;;;123.35;72.20;;;;;;;;;;5020705;28;20041;-79
2022/03/23 02:10:45;;;;;;;119.68;71.32;;;;;;;;;;5001773;28;20041;-79
2022/03/23 02:13:13;;;;;;;120.55;72.00;;;;;;;;;;5020127;28;20029;-78
2022/03/23 02:15:38;;;;;;;120.78;70.32;;;;;;;;;;5022447;28;20174;-78
2022/03/23 02:18:06;;;;;;;123.43;69.43;;;;;;;;;;5004339;28;20554;-78
2022/03/23 02:20:31;;;;;;;114.22;67.65;;;;;;;;;;5004300;28;20029;-78
2022/03/23 02:22:59;;;;;;;122.85;72.53;;;;;;;;;;5001221;28;20052;-79
2022/03/23 02:25:26;;;;;;;116.38;67.90;;;;;;;;;;5003193;28;20096;-79
2022/03/23 02:27:52;;;;;;;123.85;72.68;;;;;;;;;;5019217;28;20155;-78
2022/03/23 02:30:18;;;;;;;124.50;72.63;;;;;;;;;;5021413;28;20503;-78
2022/03/23 02:32:43;;;;;;;120.28;70.97;;;;;;;;;;5021577;28;20119;-79
2022/03/23 02:35:11;;;;;;;124.25;72.63;;;;;;;;;;5020051;28;20169;-79
2022/03/23 02:37:37;;;;;;;126.43;74.07;;;;;;;;;;5020251;28;20056;-79
2022/03/23 02:40:02;;;;;;;128.77;73.93;;;;;;;;;;5006282;28;20141;-79
2022/03/23 02:42:31;;;;;;;128.35;72.45;;;;;;;;;;5020495;28;20379;-79
2022/03/23 02:44:56;;;;;;;126.47;72.53;;;;;;;;;;5019033;28;20041;-79
2022/03/23 02:47:24;;;;;;;129.50;73.90;;;;;;;;;;5019914;28;20059;-79
2022/03/23 02:49:52;;;;;;;131.25;73.65;;;;;;;;;;5017354;28;20948;-79
2022/03/23 02:52:17;;;;;;;126.13;70.25;;;;;;;;;;5019090;28;20048;-79
2022/03/23 03:03:18;;;;;;;135.25;70.75;;;;;;;;;;5018731;28;20048;-78
2022/03/23 03:05:44;;;;;;;128.73;72.18;;;;;;;;;;5019062;28;20113;-79
2022/03/23 03:10:53;;;;;;;130.35;69.63;;;;;;;;;;5018562;28;20040;-79
2022/03/23 03:13:19;;;;;;;128.18;69.25;;;;;;;;;;5017959;28;20045;-79
2022/03/23 03:15:44;;;;;;;121.43;68.30;;;;;;;;;;5001205;28;20036;-79
2022/03/23 03:18:09;;;;;;;129.85;70.45;;;;;;;;;;5018769;28;20042;-79
2022/03/23 03:20:39;;;;;;;119.90;69.45;;;;;;;;;;4985845;28;20039;-79
2022/03/23 03:23:05;;;;;;;136.68;71.05;;;;;;;;;;5018036;28;20055;-79
2022/03/23 03:25:31;;;;;;;134.63;71.13;;;;;;;;;;4999917;28;20041;-76
2022/03/23 03:27:56;;;;;;;121.53;68.65;;;;;;;;;;5018507;28;20041;-75
2022/03/23 03:30:22;;;;;;;134.85;75.50;;;;;;;;;;5017552;28;20043;-75
2022/03/23 03:32:49;;;;;;;138.25;75.10;;;;;;;;;;5017125;28;20508;-76
2022/03/23 03:35:17;;;;;;;132.27;75.75;;;;;;;;;;5015614;28;20041;-75
2022/03/23 03:37:43;;;;;;;136.13;74.05;;;;;;;;;;5018539;28;20366;-75
2022/03/23 03:40:09;;;;;;;134.48;77.13;;;;;;;;;;5000309;28;20040;-75
2022/03/23 03:42:35;;;;;;;130.52;75.68;;;;;;;;;;5017672;28;20032;-75
2022/03/23 03:45:05;;;;;;;138.02;78.25;;;;;;;;;;5000464;28;20192;-75
2022/03/23 03:47:32;;;;;;;144.32;81.80;;;;;;;;;;5000373;28;20242;-81
2022/03/23 03:50:00;;;;;;;142.63;77.00;;;;;;;;;;5018383;28;20086;-78
2022/03/23 03:52:26;;;;;;;134.43;75.47;;;;;;;;;;5017708;28;20512;-78
2022/03/23 03:54:51;;;;;;;132.98;74.00;;;;;;;;;;4999600;28;20047;-78
2022/03/23 03:57:17;;;;;;;135.57;72.65;;;;;;;;;;5017054;28;20030;-79
2022/03/23 03:59:42;;;;;;;129.98;69.30;;;;;;;;;;5016484;28;20059;-79
2022/03/23 04:02:07;;;;;;;132.10;69.68;;;;;;;;;;5017861;28;20029;-79
2022/03/23 04:04:33;;;;;;;121.80;69.60;;;;;;;;;;5006439;28;20041;-78
2022/03/23 04:06:58;;;;;;;129.50;71.63;;;;;;;;;;5017292;28;20033;-78
2022/03/23 04:09:23;;;;;;;123.32;67.15;;;;;;;;;;5018078;28;20563;-79
2022/03/23 04:11:49;;;;;;;131.45;69.93;;;;;;;;;;5000826;28;20029;-79
2022/03/23 04:14:19;;;;;;;129.68;69.25;;;;;;;;;;4999023;28;20033;-78
2022/03/23 04:16:45;;;;;;;128.40;66.65;;;;;;;;;;5018521;28;20063;-79
2022/03/23 04:19:10;;;;;;;122.47;66.32;;;;;;;;;;5016829;28;20120;-80
2022/03/23 04:21:36;;;;;;;120.07;63.58;;;;;;;;;;5018715;28;20270;-80
2022/03/23 04:24:05;;;;;;;127.35;62.60;;;;;;;;;;5016987;28;20479;-80
2022/03/23 04:26:30;;;;;;;117.50;62.42;;;;;;;;;;5018797;28;20067;-80
2022/03/23 04:28:58;;;;;;;116.90;59.33;;;;;;;;;;5017912;28;20060;-78
2022/03/23 04:31:25;;;;;;;117.65;62.33;;;;;;;;;;5016980;28;20426;-80
2022/03/23 04:33:52;;;;;;;118.10;59.72;;;;;;;;;;5017504;28;20025;-80
2022/03/23 04:36:18;;;;;;;115.57;59.40;;;;;;;;;;4998663;28;20435;-80
2022/03/23 04:38:43;;;;;;;119.82;59.65;;;;;;;;;;5004366;28;20033;-80
2022/03/23 04:41:11;;;;;;;115.13;58.25;;;;;;;;;;4998722;28;20531;-80
2022/03/23 04:43:39;;;;;;;110.35;58.25;;;;;;;;;;5006112;28;20040;-79
2022/03/23 04:46:05;;;;;;;114.18;60.85;;;;;;;;;;5017609;28;20029;-79
2022/03/23 04:48:30;;;;;;;115.30;58.63;;;;;;;;;;5018242;28;20059;-80
2022/03/23 04:50:56;;;;;;;107.38;58.08;;;;;;;;;;5016982;28;20108;-80
2022/03/23 04:53:24;;;;;;;117.07;60.63;;;;;;;;;;5015416;28;20033;-79
2022/03/23 04:55:49;;;;;;;113.63;59.20;;;;;;;;;;4985283;28;20598;-79
2022/03/23 04:58:15;;;;;;;122.95;61.78;;;;;;;;;;5018140;28;20185;-79
2022/03/23 05:00:40;;;;;;;113.53;58.63;;;;;;;;;;5017731;28;20029;-80
2022/03/23 05:03:06;;;;;;;115.78;61.13;;;;;;;;;;5016850;28;20029;-80
2022/03/23 05:05:31;;;;;;;122.85;64.07;;;;;;;;;;5016465;28;20051;-80
2022/03/23 05:07:57;;;;;;;129.40;65.30;;;;;;;;;;5000571;28;20047;-79
2022/03/23 05:10:22;;;;;;;132.07;67.20;;;;;;;;;;5015050;28;20029;-80
2022/03/23 05:12:48;;;;;;;146.88;73.97;;;;;;;;;;5016492;28;20032;-80
2022/03/23 05:15:19;;;;;;;134.05;75.03;;;;;;;;;;4998591;28;20044;-80
2022/03/23 05:17:49;;;;;;;139.55;74.93;;;;;;;;;;5000204;28;20262;-80
2022/03/23 05:20:18;;;;;;;135.63;72.55;;;;;;;;;;4984123;28;20472;-79
2022/03/23 05:22:43;;;;;;;135.05;69.03;;;;;;;;;;5005482;28;20036;-80
2022/03/23 05:25:09;;;;;;;141.10;75.20;;;;;;;;;;5016953;28;20068;-79
2022/03/23 05:27:35;;;;;;;134.02;72.97;;;;;;;;;;5016576;28;20028;-79
2022/03/23 05:30:07;;;;;;;135.23;74.30;;;;;;;;;;5015833;28;20370;-79
2022/03/23 05:32:32;;;;;;;139.73;76.00;;;;;;;;;;5018628;28;20043;-79
2022/03/23 05:35:00;;;;;;;152.27;80.47;;;;;;;;;;5018102;28;20026;-79
2022/03/23 05:37:25;;;;;;;139.70;77.60;;;;;;;;;;5008754;28;20036;-80
2022/03/23 05:39:51;;;;;;;138.43;76.38;;;;;;;;;;5018533;28;20033;-79
2022/03/23 05:42:16;;;;;;;137.63;76.18;;;;;;;;;;5018216;28;20045;-79
2022/03/23 05:44:42;;;;;;;138.02;75.82;;;;;;;;;;5000355;28;20117;-80
2022/03/23 05:47:07;;;;;;;138.05;76.30;;;;;;;;;;5001209;28;20091;-79
2022/03/23 05:49:33;;;;;;;140.50;74.15;;;;;;;;;;5018695;28;20029;-79
2022/03/23 05:51:58;;;;;;;130.77;73.00;;;;;;;;;;5018791;28;20175;-79
2022/03/23 05:54:24;;;;;;;127.07;70.57;;;;;;;;;;5018665;28;20443;-79
2022/03/23 05:56:53;;;;;;;125.03;69.28;;;;;;;;;;5018964;28;20143;-80
2022/03/23 05:59:18;;;;;;;127.93;70.65;;;;;;;;;;5018890;28;20177;-80
2022/03/23 06:01:45;;;;;;;125.28;68.38;;;;;;;;;;5017508;28;20037;-80
2022/03/23 06:04:13;;;;;;;126.47;67.80;;;;;;;;;;5018825;28;20115;-80
2022/03/23 06:06:39;;;;;;;125.25;68.47;;;;;;;;;;5017606;28;20530;-80
2022/03/23 06:09:06;;;;;;;123.55;67.25;;;;;;;;;;5018771;28;20041;-80
2022/03/23 06:11:32;;;;;;;123.80;68.90;;;;;;;;;;4999888;28;20110;-80
2022/03/23 06:13:57;;;;;;;123.75;67.00;;;;;;;;;;5003954;28;20118;-80
2022/03/23 06:16:25;;;;;;;126.22;68.60;;;;;;;;;;5016035;28;20021;-81
2022/03/23 06:18:53;;;;;;;132.48;71.38;;;;;;;;;;5018106;28;20040;-80
2022/03/23 06:21:18;;;;;;;128.10;67.43;;;;;;;;;;5019550;28;20531;-80
2022/03/23 06:23:44;;;;;;;123.47;65.13;;;;;;;;;;5017993;28;20044;-79
2022/03/23 06:26:09;;;;;;;129.45;70.15;;;;;;;;;;4985230;28;20045;-80
2022/03/23 06:28:34;;;;;;;124.32;69.35;;;;;;;;;;5020777;28;20453;-79
2022/03/23 06:31:03;;;;;;;133.18;74.40;;;;;;;;;;5021238;28;20323;-79
2022/03/23 06:33:31;;;;;;;126.28;72.90;;;;;;;;;;5007656;28;20762;-80
2022/03/23 06:35:57;;;;;;;139.88;76.13;;;;;;;;;;5020676;28;20028;-79
2022/03/23 06:38:24;;;;;;;135.02;75.10;;;;;;;;;;5007471;28;20048;-79
2022/03/23 06:40:52;;;;;;;133.80;74.18;;;;;;;;;;5002933;28;20517;-79
2022/03/23 06:43:18;;;;;;;123.38;71.75;;;;;;;;;;5022506;28;20033;-79
2022/03/23 06:45:46;;;;;;;131.95;75.60;;;;;;;;;;5020750;28;20060;-78
2022/03/23 06:48:11;;;;;;;136.93;79.15;;;;;;;;;;4991846;28;20044;-79
2022/03/23 06:50:37;;;;;;;133.60;77.70;;;;;;;;;;5021393;28;20033;-79
2022/03/23 06:53:05;;;;;;;131.48;78.80;;;;;;;;;;5020374;28;21964;-79
2022/03/23 06:55:31;;;;;;;136.05;78.82;;;;;;;;;;5019478;28;20033;-77
2022/03/23 06:57:56;;;;;;;131.98;77.38;;;;;;;;;;5020185;28;20721;-78
2022/03/23 07:00:21;;;;;;;125.55;74.30;;;;;;;;;;5019010;28;20032;-78
2022/03/23 07:02:48;;;;;;;120.97;71.47;;;;;;;;;;5020228;28;20040;-78
2022/03/23 07:05:16;;;;;;;119.05;75.05;;;;;;;;;;5019608;28;20072;-79
2022/03/23 07:09:31;;;;;;;117.40;71.63;;;;;;;;;;5021332;28;20671;-79
2022/03/23 07:10:28;;;;;;;115.85;71.20;;;;;;;;;;5019551;28;20300;-79
2022/03/23 07:12:53;;;;;;;103.07;60.78;;;;;;;;;;4986753;28;20032;-79
2022/03/23 07:15:19;;;;;;;92.40;58.70;;;;;;;;;;5020436;28;20029;-77
2022/03/23 07:17:44;;;;;;;91.50;58.17;;;;;;;;;;5020909;28;20439;-77
2022/03/23 07:20:12;;;;;;;79.68;51.30;;;;;;;;;;5005406;28;20625;-77
2022/03/23 07:22:39;;;;;;;73.22;48.50;;;;;;;;;;5002729;28;20158;-75
2022/03/23 07:25:06;;;;;;;70.05;47.75;;;;;;;;;;5019077;28;20124;-74
2022/03/23 07:27:31;;;;;;;64.35;43.42;;;;;;;;;;5016735;28;20060;-76
2022/03/23 07:29:57;;;;;;;61.90;42.88;;;;;;;;;;5020384;28;20132;-75
2022/03/23 07:32:24;;;;;;;61.58;42.22;;;;;;;;;;5006978;28;20033;-74
2022/03/23 07:34:50;;;;;;;58.75;40.78;;;;;;;;;;5019186;28;20100;-74
2022/03/23 07:37:15;;;;;;;49.30;33.50;;;;;;;;;;5020524;28;20043;-75
2022/03/23 07:39:41;;;;;;;45.80;31.38;;;;;;;;;;5017685;28;20114;-74
2022/03/23 07:42:07;;;;;;;44.40;30.38;;;;;;;;;;5002094;28;20404;-75
2022/03/23 07:44:32;;;;;;;42.65;30.83;;;;;;;;;;5016730;28;20033;-74
2022/03/23 07:47:01;;;;;;;42.80;29.80;;;;;;;;;;5019933;28;20055;-74
2022/03/23 07:49:26;;;;;;;46.72;29.65;;;;;;;;;;5020382;28;20116;-75
2022/03/23 07:51:52;;;;;;;47.05;30.25;;;;;;;;;;5021546;28;20035;-76
2022/03/23 07:54:17;;;;;;;47.58;30.45;;;;;;;;;;5005205;28;20041;-76
2022/03/23 07:56:43;;;;;;;44.63;32.15;;;;;;;;;;5020007;28;20859;-75
2022/03/23 07:59:08;;;;;;;49.42;32.38;;;;;;;;;;5002343;28;20025;-76
2022/03/23 08:01:36;;;;;;;46.80;32.78;;;;;;;;;;5021110;28;20021;-76
2022/03/23 08:04:03;;;;;;;46.85;31.88;;;;;;;;;;5020427;28;20048;-75
2022/03/23 08:06:29;;;;;;;50.90;33.03;;;;;;;;;;5020596;28;20445;-75
2022/03/23 08:08:57;;;;;;;49.42;33.35;;;;;;;;;;5019712;28;20056;-75
2022/03/23 08:11:23;;;;;;;51.40;35.78;;;;;;;;;;5019763;28;20135;-75
2022/03/23 08:13:49;;;;;;;46.05;33.28;;;;;;;;;;5001352;28;20840;-75
2022/03/23 08:16:14;;;;;;;46.08;31.50;;;;;;;;;;5019873;28;20064;-76
2022/03/23 08:18:40;;;;;;;48.63;30.90;;;;;;;;;;4991375;28;20029;-76
2022/03/23 08:21:08;;;;;;;45.42;30.58;;;;;;;;;;5021900;28;20033;-76
2022/03/23 08:23:34;;;;;;;41.47;29.85;;;;;;;;;;5018912;28;20130;-76
2022/03/23 08:25:59;;;;;;;39.97;29.00;;;;;;;;;;5019045;28;20128;-78
2022/03/23 08:28:25;;;;;;;36.45;26.35;;;;;;;;;;5005921;28;20079;-78
2022/03/23 08:30:51;;;;;;;37.00;25.40;;;;;;;;;;5001990;28;22000;-78
2022/03/23 08:33:16;;;;;;;45.30;26.50;;;;;;;;;;5000180;28;20087;-78
2022/03/23 08:35:41;;;;;;;33.55;23.35;;;;;;;;;;5000927;28;20079;-78
2022/03/23 08:38:07;;;;;;;33.10;23.02;;;;;;;;;;5006684;28;20067;-78
2022/03/23 08:40:33;;;;;;;30.70;22.45;;;;;;;;;;5001859;28;20032;-78
2022/03/23 08:43:01;;;;;;;33.38;22.02;;;;;;;;;;5018003;28;20033;-78
2022/03/23 08:45:27;;;;;;;31.00;22.38;;;;;;;;;;5018694;28;20447;-79
2022/03/23 08:47:54;;;;;;;38.95;22.20;;;;;;;;;;5018649;28;20034;-78
2022/03/23 08:50:21;;;;;;;35.00;21.45;;;;;;;;;;5018741;28;20341;-79
2022/03/23 08:52:52;;;;;;;31.48;20.95;;;;;;;;;;5003411;28;20555;-78
2022/03/23 08:55:23;;;;;;;29.45;20.63;;;;;;;;;;4986566;28;20512;-78
2022/03/23 08:57:48;;;;;;;28.42;21.00;;;;;;;;;;5020292;28;20083;-78
2022/03/23 09:00:17;;;;;;;31.83;20.55;;;;;;;;;;5019542;28;20091;-78
2022/03/23 09:02:42;;;;;;;28.05;19.05;;;;;;;;;;5019796;28;20532;-74
2022/03/23 09:05:12;;;;;;;29.15;18.73;;;;;;;;;;5000955;28;20049;-74
2022/03/23 09:07:40;;;;;;;27.38;19.45;;;;;;;;;;5004204;28;20540;-74
2022/03/23 09:10:06;;;;;;;25.10;17.85;;;;;;;;;;4999915;28;20045;-72
2022/03/23 09:12:34;;;;;;;26.85;17.08;;;;;;;;;;5000609;28;20026;-72
2022/03/23 09:14:59;;;;;;;27.95;19.45;;;;;;;;;;5000278;28;20106;-71
2022/03/23 09:17:25;;;;;;;29.15;18.02;;;;;;;;;;4999890;28;20176;-71
2022/03/23 09:19:50;;;;;;;26.02;18.02;;;;;;;;;;5014233;28;20022;-74
2022/03/23 09:22:16;;;;;;;34.05;18.15;;;;;;;;;;4999387;28;20108;-73
2022/03/23 09:24:41;;;;;;;24.08;17.48;;;;;;;;;;4997838;28;20199;-73
2022/03/23 09:27:09;;;;;;;24.48;18.08;;;;;;;;;;4998843;28;20783;-74
2022/03/23 09:29:34;;;;;;;23.10;18.13;;;;;;;;;;4997942;28;20593;-72
2022/03/23 09:32:00;;;;;;;27.80;18.17;;;;;;;;;;4999459;28;20159;-74
2022/03/23 09:34:27;;;;;;;25.58;18.10;;;;;;;;;;5000451;28;20037;-74
2022/03/23 09:39:37;;;;;;;29.55;19.23;;;;;;;;;;4997489;28;20151;-73
2022/03/23 09:42:03;;;;;;;27.80;18.58;;;;;;;;;;4999666;28;20263;-74
2022/03/23 09:44:34;;;;;;;30.70;18.92;;;;;;;;;;4998835;28;20535;-73
2022/03/23 09:47:07;;;;;;;28.13;19.30;;;;;;;;;;4983972;28;20033;-73
2022/03/23 09:49:33;;;;;;;31.65;18.92;;;;;;;;;;5003751;28;20570;-73
2022/03/23 09:51:59;;;;;;;26.80;18.52;;;;;;;;;;4997796;28;20029;-74
2022/03/23 09:54:25;;;;;;;29.38;19.40;;;;;;;;;;4999842;28;20033;-73
2022/03/23 09:56:52;;;;;;;26.95;18.10;;;;;;;;;;4999946;28;20500;-74
2022/03/23 09:59:18;;;;;;;27.88;18.42;;;;;;;;;;4997741;28;20507;-74
2022/03/23 10:01:46;;;;;;;27.63;18.23;;;;;;;;;;5002565;28;20042;-73
2022/03/23 10:04:20;;;;;;;26.60;17.73;;;;;;;;;;5003530;28;20145;-73
2022/03/23 10:07:04;;;;;;;28.17;18.13;;;;;;;;;;5021146;28;20087;-74
2022/03/23 10:09:47;;;;;;;27.52;19.23;;;;;;;;;;5025032;28;22008;-75
2022/03/23 10:12:33;;;;;;;30.73;19.20;;;;;;;;;;5024267;28;20040;-74
2022/03/23 10:15:17;;;;;;;25.80;17.70;;;;;;;;;;5026750;28;20528;-74
2022/03/23 10:17:54;;;;;;;23.88;16.27;;;;;;;;;;5025964;28;20033;-74
2022/03/23 10:20:20;;;;;;;26.00;16.00;;;;;;;;;;5010125;28;20210;-74
2022/03/23 10:22:52;;;;;;;25.60;16.38;;;;;;;;;;5008490;28;20515;-74
2022/03/23 10:25:23;;;;;;;23.13;15.57;;;;;;;;;;5024453;28;20074;-75
2022/03/23 10:27:48;;;;;;;23.95;15.93;;;;;;;;;;5007874;28;20029;-75
2022/03/23 10:30:14;;;;;;;23.88;15.45;;;;;;;;;;5007694;28;20061;-75
2022/03/23 10:32:44;;;;;;;22.88;15.82;;;;;;;;;;5024344;28;20032;-75
2022/03/23 10:35:12;;;;;;;24.02;15.48;;;;;;;;;;5025580;28;20024;-74
2022/03/23 10:37:37;;;;;;;24.90;15.93;;;;;;;;;;5021660;28;20059;-74
2022/03/23 10:40:08;;;;;;;24.67;15.48;;;;;;;;;;5001275;28;20028;-72
2022/03/23 10:42:36;;;;;;;23.67;15.18;;;;;;;;;;5023386;28;20112;-72
2022/03/23 10:45:08;;;;;;;23.00;15.73;;;;;;;;;;5021121;28;20402;-72
2022/03/23 10:47:34;;;;;;;23.08;15.20;;;;;;;;;;5004070;28;20387;-72
2022/03/23 10:50:10;;;;;;;23.08;14.80;;;;;;;;;;5023408;28;20480;-72
2022/03/23 10:52:36;;;;;;;27.38;14.32;;;;;;;;;;5006902;28;20036;-72
2022/03/23 10:55:07;;;;;;;25.13;13.68;;;;;;;;;;5020744;28;20265;-72
2022/03/23 10:57:58;;;;;;;21.48;14.70;;;;;;;;;;5021579;28;20131;-73
2022/03/23 11:00:32;;;;;;;32.35;14.02;;;;;;;;;;4993514;28;20044;-72
2022/03/23 11:03:00;;;;;;;25.00;14.55;;;;;;;;;;5010153;28;20032;-71
2022/03/23 11:05:29;;;;;;;21.25;13.48;;;;;;;;;;5021024;28;20056;-70
2022/03/23 11:08:15;;;;;;;25.77;12.40;;;;;;;;;;5018839;28;20037;-70
2022/03/23 11:16:12;;;;;;;30.52;15.02;;;;;;;;;;5024271;28;20107;-71
2022/03/23 11:18:38;;;;;;;24.40;13.73;;;;;;;;;;5019696;28;20030;-71
2022/03/23 11:21:06;;;;;;;24.45;12.57;;;;;;;;;;5024230;28;20189;-71
2022/03/23 11:23:33;;;;;;;21.80;12.48;;;;;;;;;;5023049;28;20044;-72
2022/03/23 11:26:00;;;;;;;20.77;10.45;;;;;;;;;;5020912;28;20033;-72
2022/03/23 11:28:28;;;;;;;20.75;11.18;;;;;;;;;;5020891;28;20048;-71
2022/03/23 11:30:54;;;;;;;25.00;13.75;;;;;;;;;;5024124;28;20156;-72
2022/03/23 11:33:21;;;;;;;22.75;12.93;;;;;;;;;;5020340;28;20582;-71
2022/03/23 11:35:48;;;;;;;20.20;12.10;;;;;;;;;;5021316;28;20033;-72
2022/03/23 11:38:17;;;;;;;25.90;13.68;;;;;;;;;;5004330;28;20017;-70
2022/03/23 11:40:44;;;;;;;26.25;14.40;;;;;;;;;;5008690;28;20029;-70
2022/03/23 11:43:10;;;;;;;27.85;15.00;;;;;;;;;;5007687;28;20452;-71
2022/03/23 11:45:38;;;;;;;33.00;15.30;;;;;;;;;;5003124;28;20721;-70
2022/03/23 11:48:18;;;;;;;29.23;15.18;;;;;;;;;;5020326;28;20094;-73
2022/03/23 11:50:56;;;;;;;26.23;14.32;;;;;;;;;;5020915;28;20052;-69
2022/03/23 11:53:26;;;;;;;22.23;14.18;;;;;;;;;;5018553;28;20161;-70
2022/03/23 11:55:54;;;;;;;28.40;15.35;;;;;;;;;;5017985;28;20082;-70
2022/03/23 11:58:23;;;;;;;27.17;14.65;;;;;;;;;;5018701;28;20575;-70
2022/03/23 12:00:53;;;;;;;24.77;14.48;;;;;;;;;;5019478;28;20059;-71
2022/03/23 12:03:37;;;;;;;21.48;14.05;;;;;;;;;;5002057;28;20032;-71
2022/03/23 12:06:13;;;;;;;23.35;15.13;;;;;;;;;;5020049;28;20056;-70
2022/03/23 12:08:58;;;;;;;23.85;13.60;;;;;;;;;;5017465;28;20052;-70
2022/03/23 12:11:42;;;;;;;23.42;12.98;;;;;;;;;;5019721;28;20565;-71
2022/03/23 12:14:18;;;;;;;24.42;13.63;;;;;;;;;;5018249;28;20052;-70
2022/03/23 12:16:46;;;;;;;23.85;13.85;;;;;;;;;;5017016;28;20109;-70
2022/03/23 12:19:16;;;;;;;26.45;13.15;;;;;;;;;;5020008;28;20045;-71
2022/03/23 12:22:01;;;;;;;24.40;13.15;;;;;;;;;;5019845;28;20076;-71
2022/03/23 12:24:41;;;;;;;23.63;12.82;;;;;;;;;;5019288;28;20041;-71
2022/03/23 12:27:13;;;;;;;20.98;12.60;;;;;;;;;;5017814;28;21812;-71
2022/03/23 12:29:40;;;;;;;24.48;11.70;;;;;;;;;;5001314;28;20016;-71
2022/03/23 12:32:08;;;;;;;25.27;12.98;;;;;;;;;;5020257;28;20628;-71
2022/03/23 12:34:34;;;;;;;20.40;12.15;;;;;;;;;;5020126;28;20364;-71
2022/03/23 12:37:16;;;;;;;21.48;12.57;;;;;;;;;;5019118;28;20482;-71
2022/03/23 12:39:44;;;;;;;22.45;12.40;;;;;;;;;;5000486;28;20021;-71
2022/03/23 12:42:11;;;;;;;20.80;12.60;;;;;;;;;;5018763;28;20028;-72
2022/03/23 12:44:37;;;;;;;22.63;12.25;;;;;;;;;;5020695;28;20025;-72
2022/03/23 12:47:23;;;;;;;26.38;12.35;;;;;;;;;;5002826;28;20034;-71
2022/03/23 12:58:19;;;;;;;25.10;11.48;;;;;;;;;;5019007;28;20148;-71
2022/03/23 13:00:49;;;;;;;20.42;10.95;;;;;;;;;;5018961;28;20120;-71
2022/03/23 13:03:22;;;;;;;25.45;12.25;;;;;;;;;;5017366;28;20241;-71
2022/03/23 13:05:54;;;;;;;22.13;11.65;;;;;;;;;;5018825;28;20095;-71
2022/03/23 13:08:35;;;;;;;24.60;11.00;;;;;;;;;;5001389;28;20083;-71
2022/03/23 13:11:06;;;;;;;25.40;11.55;;;;;;;;;;5017345;28;20047;-71
2022/03/23 13:13:33;;;;;;;18.90;11.77;;;;;;;;;;5018709;28;20041;-72
2022/03/23 13:15:59;;;;;;;24.52;11.75;;;;;;;;;;5020083;28;20272;-71
2022/03/23 13:18:30;;;;;;;23.65;10.55;;;;;;;;;;5021800;28;20503;-72
2022/03/23 13:20:57;;;;;;;21.42;10.20;;;;;;;;;;5001817;28;20025;-71
2022/03/23 13:23:22;;;;;;;23.83;9.82;;;;;;;;;;5019756;28;20728;-71
2022/03/23 13:26:11;;;;;;;20.13;9.35;;;;;;;;;;5018212;28;20029;-71
2022/03/23 13:28:38;;;;;;;25.25;9.73;;;;;;;;;;5019240;28;20063;-71
2022/03/23 13:31:05;;;;;;;20.52;9.85;;;;;;;;;;5001503;28;20495;-71
2022/03/23 13:33:38;;;;;;;22.15;10.30;;;;;;;;;;5001717;28;20033;-71
2022/03/23 13:36:06;;;;;;;19.90;9.35;;;;;;;;;;5002173;28;20021;-71
2022/03/23 13:38:35;;;;;;;28.08;9.68;;;;;;;;;;5017617;28;20024;-71
2022/03/23 13:43:44;;;;;;;20.58;8.55;;;;;;;;;;5003096;28;20848;-72
2022/03/23 13:46:10;;;;;;;21.73;6.93;;;;;;;;;;5019908;28;20066;-70
2022/03/23 13:48:36;;;;;;;19.75;6.03;;;;;;;;;;5002975;28;20527;-70
2022/03/23 13:51:03;;;;;;;22.30;7.80;;;;;;;;;;5020620;28;20656;-70
2022/03/23 13:53:29;;;;;;;22.10;8.55;;;;;;;;;;5020465;28;20033;-71
2022/03/23 13:55:55;;;;;;;20.23;8.95;;;;;;;;;;5019668;28;20850;-69
2022/03/23 13:58:23;;;;;;;23.65;10.10;;;;;;;;;;5019715;28;20413;-70
2022/03/23 14:00:50;;;;;;;23.77;10.18;;;;;;;;;;5019376;28;20049;-69
2022/03/23 14:03:20;;;;;;;22.75;10.20;;;;;;;;;;5002544;28;20037;-69
2022/03/23 14:06:07;;;;;;;25.80;14.52;;;;;;;;;;5021029;28;20053;-69
2022/03/23 14:08:34;;;;;;;24.60;13.63;;;;;;;;;;5021695;28;20032;-69
2022/03/23 14:11:00;;;;;;;23.92;13.45;;;;;;;;;;5000246;28;20082;-69
2022/03/23 14:13:29;;;;;;;25.83;13.15;;;;;;;;;;5019286;28;20069;-72
2022/03/23 14:15:58;;;;;;;27.73;13.25;;;;;;;;;;5006561;28;20029;-68
2022/03/23 14:18:26;;;;;;;;;;;;;;;;;;5019366;28;20287;-69
2022/03/23 14:20:52;;;;;;;28.95;13.32;;;;;;;;;;5003458;28;19995;-69
2022/03/23 14:23:19;;;;;;;29.77;13.00;;;;;;;;;;5019113;28;20128;-69
2022/03/23 14:25:45;;;;;;;25.30;12.60;;;;;;;;;;5019216;28;20029;-70
2022/03/23 14:28:20;;;;;;;23.05;13.55;;;;;;;;;;4998492;28;20521;-71
2022/03/23 14:30:55;;;;;;;24.25;13.98;;;;;;;;;;4999333;28;20172;-70
2022/03/23 14:33:24;;;;;;;25.73;13.82;;;;;;;;;;5016890;28;20029;-71
2022/03/23 14:35:50;;;;;;;22.83;14.18;;;;;;;;;;5019303;28;20124;-71
2022/03/23 14:38:17;;;;;;;26.88;13.20;;;;;;;;;;5017418;28;20036;-70
2022/03/23 14:40:53;;;;;;;26.20;13.45;;;;;;;;;;5015981;28;20134;-71
2022/03/23 14:43:24;;;;;;;27.05;14.68;;;;;;;;;;5017138;28;20431;-69
2022/03/23 14:45:52;;;;;;;31.48;15.50;;;;;;;;;;5016696;28;20451;-69